Hovedside
METAR-TAF:

METAR-TAF

Lufthavner :

Hongkong internasjonale lufthavn

Hongkong, Kina

breddegrad: 22-19N, lengdegrad: 113-55E, høyde over havet: 9 m

Gjeldene værobservasjon

Denne rapporten ble laget for 15 minutter siden, klokken 04:00 UTC
Vind 9 kt fra Øst-sørøst, skiftende mellom Øst og Sør-sørøst
Temperatur 26°C
Luftfuktighet 79%
Trykk 1017 hPa
Sikt: 9000 m
Få skyer i en høyde av 1500 ft
Spredte skyer i en høyde av 3800 ft
lett regn

METAR: VHHH 240400Z 12009KT 080V150 9000 -RA FEW015 SCT038 26/22 Q1017 NOSIG

Tid: 12:15 (04:15 UTC)

Varsel

Denne rapporten ble laget for 5 timer og 15 minutter siden, klokken 23:00 UTC
Varsel gyldig fra 24. klokken 00 UTC til 25. klokken 06 UTC
Vind 10 kt fra Øst-nordøst
Sikt 10 km eller mer
Få skyer i en høyde av 1800 ft
Spredte skyer i en høyde av 3500 ft
Midlertidig
fra 24. klokken 06 UTC til 24. klokken 09 UTC
Vind 10 kt fra Nord-nordvest

TAF: VHHH 232300Z 2400/2506 07010KT 9999 FEW018 SCT035 TX28/2407Z TX29/2506Z TN24/2422Z TEMPO 2406/2409 33010KT

Værobservasjoner og værvarsel for over 4000 flyplasser (METAR- og TAF-rapporter).

Tilgjengelige stasjoner er representert av de røde og gule prikkene på kartet.

Hold musepekeren over prikken for å se navnet på stasjonen.

Klikk så for å se værobservasjoner og -varsler.

For å forandre kartet kan du klikke på den grønne knappen med svart kryss for å zoome inn, på den grønne knappen med strek for å zoome ut, eller på de grønne pilene for å se tilstøtende kart.


METAR-TAF: